In Salah, Algeria
Current Conditions -  °F | °C
As of 8:00 PM on Friday 31 Oct 2014 (Local Time) from DAUI Reporting Station
Clear Clear  
Wind Chill: 26°   Ceiling: Unl
Heat Index: 26°   Visibility: 6mi
Dew Point:   Wind: 16mph
Humidity: 20%   Direction: 20°NNE
Pressure: 30.03"   Gusts: NA
Location:  27.19°N, 2.47°E
Report Text: DAUI 311900Z 02014KT CAVOK 26/01 Q1017
Loading
Personal Weather Stations






























Interactive Weather Map
Tropical Storm Tracking
New forecast layout! Learn more

10-Day Weather Forecast

Advertisements
Track Severe Weather on mobile